Hancock, Vermont
Current Conditions -  °F | °C
As of 3:55 PM on Friday 31 Oct 2014 (Local Time) from K6B0 Reporting Station
Overcast Overcast  
Wind Chill: 44°   Ceiling: 5000
Heat Index: 48°   Visibility: 10mi
Dew Point: 35°   Wind: 8mph
Humidity: 60%   Direction: 340°NNW
Pressure: 29.98"   Gusts: NA
Location:  43.93°N, 72.84°W
Report Text: K6B0 311955Z AUTO 34007KT 10SM OVC050 09/01 A2998 RMK AO2 T00890014
Loading
Personal Weather Stations






























Interactive Weather Map
Tropical Storm Tracking
New forecast layout! Learn more

10-Day Weather Forecast

Advertisements
Track Severe Weather on mobile